sensor_id;sensor_type;location;lat;lon;timestamp;P1;durP1;ratioP1;P2;durP2;ratioP2
22837;SDS011;11585;51.450;-0.240;2023-03-23T00:01:13;25.73;;;3.67;;
22837;SDS011;11585;51.450;-0.240;2023-03-23T00:03:53;23.45;;;3.90;;
22837;SDS011;11585;51.450;-0.240;2023-03-23T00:06:22;23.50;;;4.50;;
22837;SDS011;11585;51.450;-0.240;2023-03-23T00:08:49;29.95;;;4.88;;
22837;SDS011;11585;51.450;-0.240;2023-03-23T00:11:21;29.08;;;5.03;;
22837;SDS011;11585;51.450;-0.240;2023-03-23T00:13:49;30.50;;;4.55;;
22837;SDS011;11585;51.450;-0.240;2023-03-23T00:16:16;35.63;;;4.68;;
22837;SDS011;11585;51.450;-0.240;2023-03-23T00:18:44;27.38;;;4.05;;
22837;SDS011;11585;51.450;-0.240;2023-03-23T00:21:17;30.55;;;3.40;;
22837;SDS011;11585;51.450;-0.240;2023-03-23T00:27:05;31.27;;;3.83;;
22837;SDS011;11585;51.450;-0.240;2023-03-23T00:29:31;29.65;;;4.45;;
22837;SDS011;11585;51.450;-0.240;2023-03-23T00:31:57;27.98;;;4.00;;
22837;SDS011;11585;51.450;-0.240;2023-03-23T00:37:45;32.15;;;4.38;;
22837;SDS011;11585;51.450;-0.240;2023-03-23T00:40:10;31.17;;;4.25;;
22837;SDS011;11585;51.450;-0.240;2023-03-23T00:45:43;39.53;;;4.05;;
22837;SDS011;11585;51.450;-0.240;2023-03-23T00:48:10;33.92;;;5.15;;
22837;SDS011;11585;51.450;-0.240;2023-03-23T00:50:37;28.83;;;4.53;;
22837;SDS011;11585;51.450;-0.240;2023-03-23T00:53:04;25.98;;;4.20;;
22837;SDS011;11585;51.450;-0.240;2023-03-23T00:55:30;33.88;;;4.50;;
22837;SDS011;11585;51.450;-0.240;2023-03-23T00:57:55;30.15;;;4.43;;
22837;SDS011;11585;51.450;-0.240;2023-03-23T01:00:21;35.65;;;4.70;;
22837;SDS011;11585;51.450;-0.240;2023-03-23T01:06:10;32.53;;;4.97;;
22837;SDS011;11585;51.450;-0.240;2023-03-23T01:11:10;34.92;;;4.60;;
22837;SDS011;11585;51.450;-0.240;2023-03-23T01:16:10;31.83;;;4.00;;
22837;SDS011;11585;51.450;-0.240;2023-03-23T01:18:37;35.67;;;3.72;;
22837;SDS011;11585;51.450;-0.240;2023-03-23T01:21:07;30.77;;;4.13;;
22837;SDS011;11585;51.450;-0.240;2023-03-23T01:26:25;31.27;;;4.00;;
22837;SDS011;11585;51.450;-0.240;2023-03-23T01:28:52;33.33;;;4.75;;
22837;SDS011;11585;51.450;-0.240;2023-03-23T01:31:19;30.52;;;4.15;;
22837;SDS011;11585;51.450;-0.240;2023-03-23T01:36:54;29.02;;;3.22;;
22837;SDS011;11585;51.450;-0.240;2023-03-23T01:39:20;28.80;;;4.13;;
22837;SDS011;11585;51.450;-0.240;2023-03-23T01:41:45;31.63;;;4.28;;
22837;SDS011;11585;51.450;-0.240;2023-03-23T01:46:46;28.52;;;4.18;;
22837;SDS011;11585;51.450;-0.240;2023-03-23T01:49:21;31.17;;;4.28;;
22837;SDS011;11585;51.450;-0.240;2023-03-23T01:51:59;40.50;;;4.88;;
22837;SDS011;11585;51.450;-0.240;2023-03-23T01:54:33;21.95;;;4.35;;
22837;SDS011;11585;51.450;-0.240;2023-03-23T01:59:31;26.20;;;3.60;;
22837;SDS011;11585;51.450;-0.240;2023-03-23T02:01:58;30.48;;;4.38;;
22837;SDS011;11585;51.450;-0.240;2023-03-23T02:04:26;34.72;;;4.72;;
22837;SDS011;11585;51.450;-0.240;2023-03-23T02:06:53;35.20;;;4.30;;
22837;SDS011;11585;51.450;-0.240;2023-03-23T02:09:21;29.35;;;4.15;;
22837;SDS011;11585;51.450;-0.240;2023-03-23T02:11:47;48.83;;;4.32;;
22837;SDS011;11585;51.450;-0.240;2023-03-23T02:20:10;35.13;;;4.50;;
22837;SDS011;11585;51.450;-0.240;2023-03-23T02:39:05;24.50;;;3.08;;
22837;SDS011;11585;51.450;-0.240;2023-03-23T02:41:58;21.15;;;3.50;;
22837;SDS011;11585;51.450;-0.240;2023-03-23T02:44:28;23.23;;;3.58;;
22837;SDS011;11585;51.450;-0.240;2023-03-23T02:46:56;23.60;;;3.67;;
22837;SDS011;11585;51.450;-0.240;2023-03-23T02:49:24;33.70;;;3.53;;
22837;SDS011;11585;51.450;-0.240;2023-03-23T02:51:52;20.85;;;3.15;;
22837;SDS011;11585;51.450;-0.240;2023-03-23T02:54:22;19.02;;;3.13;;
22837;SDS011;11585;51.450;-0.240;2023-03-23T02:56:50;25.77;;;3.58;;
22837;SDS011;11585;51.450;-0.240;2023-03-23T02:59:18;29.10;;;4.13;;
22837;SDS011;11585;51.450;-0.240;2023-03-23T03:07:02;38.55;;;4.53;;
22837;SDS011;11585;51.450;-0.240;2023-03-23T03:09:53;26.10;;;3.63;;
22837;SDS011;11585;51.450;-0.240;2023-03-23T03:15:36;29.58;;;3.80;;
22837;SDS011;11585;51.450;-0.240;2023-03-23T03:18:15;35.50;;;4.53;;
22837;SDS011;11585;51.450;-0.240;2023-03-23T03:20:54;30.50;;;4.35;;
22837;SDS011;11585;51.450;-0.240;2023-03-23T03:26:36;25.20;;;4.30;;
22837;SDS011;11585;51.450;-0.240;2023-03-23T03:29:10;24.05;;;4.63;;
22837;SDS011;11585;51.450;-0.240;2023-03-23T03:31:36;35.38;;;4.20;;
22837;SDS011;11585;51.450;-0.240;2023-03-23T03:36:53;21.95;;;2.67;;
22837;SDS011;11585;51.450;-0.240;2023-03-23T03:39:23;32.65;;;4.22;;
22837;SDS011;11585;51.450;-0.240;2023-03-23T03:41:49;42.75;;;4.53;;
22837;SDS011;11585;51.450;-0.240;2023-03-23T03:46:45;31.73;;;4.00;;
22837;SDS011;11585;51.450;-0.240;2023-03-23T03:49:11;36.63;;;4.55;;
22837;SDS011;11585;51.450;-0.240;2023-03-23T03:51:38;27.35;;;4.13;;
22837;SDS011;11585;51.450;-0.240;2023-03-23T03:54:04;31.23;;;3.65;;
22837;SDS011;11585;51.450;-0.240;2023-03-23T03:56:31;35.83;;;4.78;;
22837;SDS011;11585;51.450;-0.240;2023-03-23T03:59:00;36.08;;;3.90;;
22837;SDS011;11585;51.450;-0.240;2023-03-23T04:01:27;23.70;;;3.55;;
22837;SDS011;11585;51.450;-0.240;2023-03-23T04:06:39;36.03;;;4.75;;
22837;SDS011;11585;51.450;-0.240;2023-03-23T04:09:05;42.70;;;4.63;;
22837;SDS011;11585;51.450;-0.240;2023-03-23T04:11:31;32.55;;;4.10;;
22837;SDS011;11585;51.450;-0.240;2023-03-23T04:17:20;31.77;;;4.85;;
22837;SDS011;11585;51.450;-0.240;2023-03-23T04:25:32;24.83;;;3.50;;
22837;SDS011;11585;51.450;-0.240;2023-03-23T04:27:58;25.67;;;3.70;;
22837;SDS011;11585;51.450;-0.240;2023-03-23T04:30:26;26.25;;;3.80;;
22837;SDS011;11585;51.450;-0.240;2023-03-23T04:35:41;39.35;;;4.32;;
22837;SDS011;11585;51.450;-0.240;2023-03-23T04:38:11;40.30;;;4.28;;
22837;SDS011;11585;51.450;-0.240;2023-03-23T04:40:39;29.60;;;3.70;;
22837;SDS011;11585;51.450;-0.240;2023-03-23T04:46:17;30.42;;;3.67;;
22837;SDS011;11585;51.450;-0.240;2023-03-23T04:48:44;28.77;;;3.63;;
22837;SDS011;11585;51.450;-0.240;2023-03-23T04:51:13;25.48;;;3.30;;
22837;SDS011;11585;51.450;-0.240;2023-03-23T04:53:41;33.25;;;3.88;;
22837;SDS011;11585;51.450;-0.240;2023-03-23T04:56:07;32.80;;;3.83;;
22837;SDS011;11585;51.450;-0.240;2023-03-23T04:58:32;27.73;;;3.72;;
22837;SDS011;11585;51.450;-0.240;2023-03-23T05:00:59;33.22;;;4.45;;
22837;SDS011;11585;51.450;-0.240;2023-03-23T05:06:29;31.33;;;3.53;;
22837;SDS011;11585;51.450;-0.240;2023-03-23T05:08:55;33.20;;;4.05;;
22837;SDS011;11585;51.450;-0.240;2023-03-23T05:11:21;31.52;;;4.13;;
22837;SDS011;11585;51.450;-0.240;2023-03-23T05:17:09;32.55;;;4.05;;
22837;SDS011;11585;51.450;-0.240;2023-03-23T05:19:35;32.05;;;3.72;;
22837;SDS011;11585;51.450;-0.240;2023-03-23T05:22:04;29.83;;;4.30;;
22837;SDS011;11585;51.450;-0.240;2023-03-23T05:24:32;32.58;;;4.57;;
22837;SDS011;11585;51.450;-0.240;2023-03-23T05:27:01;25.42;;;3.75;;
22837;SDS011;11585;51.450;-0.240;2023-03-23T05:29:28;32.63;;;3.90;;
22837;SDS011;11585;51.450;-0.240;2023-03-23T05:31:55;27.48;;;3.38;;
22837;SDS011;11585;51.450;-0.240;2023-03-23T05:34:25;37.72;;;4.43;;
22837;SDS011;11585;51.450;-0.240;2023-03-23T05:36:51;29.63;;;4.00;;
22837;SDS011;11585;51.450;-0.240;2023-03-23T05:39:18;38.47;;;4.25;;
22837;SDS011;11585;51.450;-0.240;2023-03-23T05:41:44;31.00;;;4.43;;
22837;SDS011;11585;51.450;-0.240;2023-03-23T05:47:15;40.92;;;5.47;;
22837;SDS011;11585;51.450;-0.240;2023-03-23T05:49:42;41.25;;;5.22;;
22837;SDS011;11585;51.450;-0.240;2023-03-23T05:55:13;29.30;;;4.38;;
22837;SDS011;11585;51.450;-0.240;2023-03-23T05:57:40;38.72;;;3.83;;
22837;SDS011;11585;51.450;-0.240;2023-03-23T06:00:05;41.03;;;4.43;;
22837;SDS011;11585;51.450;-0.240;2023-03-23T06:05:33;36.08;;;3.85;;
22837;SDS011;11585;51.450;-0.240;2023-03-23T06:08:08;38.30;;;4.70;;
22837;SDS011;11585;51.450;-0.240;2023-03-23T06:10:35;27.50;;;3.78;;
22837;SDS011;11585;51.450;-0.240;2023-03-23T06:16:23;35.42;;;4.22;;
22837;SDS011;11585;51.450;-0.240;2023-03-23T06:18:49;31.10;;;5.00;;
22837;SDS011;11585;51.450;-0.240;2023-03-23T06:21:14;28.25;;;3.50;;
22837;SDS011;11585;51.450;-0.240;2023-03-23T06:26:30;32.38;;;4.03;;
22837;SDS011;11585;51.450;-0.240;2023-03-23T06:28:58;32.63;;;4.68;;
22837;SDS011;11585;51.450;-0.240;2023-03-23T06:31:24;37.75;;;4.30;;
22837;SDS011;11585;51.450;-0.240;2023-03-23T06:36:57;42.47;;;4.85;;
22837;SDS011;11585;51.450;-0.240;2023-03-23T06:39:23;27.95;;;3.55;;
22837;SDS011;11585;51.450;-0.240;2023-03-23T06:41:50;38.17;;;4.65;;
22837;SDS011;11585;51.450;-0.240;2023-03-23T06:47:01;39.15;;;5.85;;
22837;SDS011;11585;51.450;-0.240;2023-03-23T06:49:28;37.13;;;4.25;;
22837;SDS011;11585;51.450;-0.240;2023-03-23T06:51:54;32.03;;;3.70;;
22837;SDS011;11585;51.450;-0.240;2023-03-23T07:00:27;37.80;;;3.70;;
22837;SDS011;11585;51.450;-0.240;2023-03-23T07:05:39;42.25;;;4.30;;
22837;SDS011;11585;51.450;-0.240;2023-03-23T07:08:44;29.90;;;3.88;;
22837;SDS011;11585;51.450;-0.240;2023-03-23T07:11:10;40.95;;;4.63;;
22837;SDS011;11585;51.450;-0.240;2023-03-23T07:13:37;25.58;;;4.07;;
22837;SDS011;11585;51.450;-0.240;2023-03-23T07:16:06;38.55;;;4.05;;
22837;SDS011;11585;51.450;-0.240;2023-03-23T07:18:32;31.33;;;4.25;;
22837;SDS011;11585;51.450;-0.240;2023-03-23T07:20:58;39.92;;;5.15;;
22837;SDS011;11585;51.450;-0.240;2023-03-23T07:23:26;42.60;;;4.32;;
22837;SDS011;11585;51.450;-0.240;2023-03-23T07:25:53;33.58;;;5.05;;
22837;SDS011;11585;51.450;-0.240;2023-03-23T07:28:19;36.08;;;4.47;;
22837;SDS011;11585;51.450;-0.240;2023-03-23T07:30:45;28.23;;;3.92;;
22837;SDS011;11585;51.450;-0.240;2023-03-23T07:33:12;24.45;;;3.90;;
22837;SDS011;11585;51.450;-0.240;2023-03-23T07:35:37;49.33;;;5.80;;
22837;SDS011;11585;51.450;-0.240;2023-03-23T07:38:04;36.08;;;4.80;;
22837;SDS011;11585;51.450;-0.240;2023-03-23T07:40:31;34.63;;;4.50;;
22837;SDS011;11585;51.450;-0.240;2023-03-23T07:43:01;33.90;;;5.05;;
22837;SDS011;11585;51.450;-0.240;2023-03-23T07:45:31;29.25;;;4.57;;
22837;SDS011;11585;51.450;-0.240;2023-03-23T07:47:57;37.20;;;4.53;;
22837;SDS011;11585;51.450;-0.240;2023-03-23T07:50:22;29.10;;;4.90;;
22837;SDS011;11585;51.450;-0.240;2023-03-23T07:52:54;33.10;;;4.10;;
22837;SDS011;11585;51.450;-0.240;2023-03-23T07:55:21;29.45;;;4.43;;
22837;SDS011;11585;51.450;-0.240;2023-03-23T07:57:49;39.50;;;7.07;;
22837;SDS011;11585;51.450;-0.240;2023-03-23T08:00:18;29.10;;;4.28;;
22837;SDS011;11585;51.450;-0.240;2023-03-23T08:05:30;37.38;;;4.45;;
22837;SDS011;11585;51.450;-0.240;2023-03-23T08:07:57;30.88;;;5.05;;
22837;SDS011;11585;51.450;-0.240;2023-03-23T08:10:23;28.23;;;3.67;;
22837;SDS011;11585;51.450;-0.240;2023-03-23T08:12:55;36.35;;;4.53;;
22837;SDS011;11585;51.450;-0.240;2023-03-23T08:15:21;34.95;;;4.47;;
22837;SDS011;11585;51.450;-0.240;2023-03-23T08:17:48;28.02;;;4.68;;
22837;SDS011;11585;51.450;-0.240;2023-03-23T08:20:15;43.95;;;5.07;;
22837;SDS011;11585;51.450;-0.240;2023-03-23T08:22:45;27.60;;;4.37;;
22837;SDS011;11585;51.450;-0.240;2023-03-23T08:25:15;31.20;;;4.38;;
22837;SDS011;11585;51.450;-0.240;2023-03-23T08:27:42;29.80;;;4.18;;
22837;SDS011;11585;51.450;-0.240;2023-03-23T08:30:09;23.40;;;3.45;;
22837;SDS011;11585;51.450;-0.240;2023-03-23T08:32:38;23.98;;;3.78;;
22837;SDS011;11585;51.450;-0.240;2023-03-23T08:35:05;29.17;;;3.45;;
22837;SDS011;11585;51.450;-0.240;2023-03-23T08:37:32;25.00;;;4.22;;
22837;SDS011;11585;51.450;-0.240;2023-03-23T08:39:57;31.98;;;3.80;;
22837;SDS011;11585;51.450;-0.240;2023-03-23T08:45:10;30.23;;;4.13;;
22837;SDS011;11585;51.450;-0.240;2023-03-23T08:47:37;25.13;;;4.25;;
22837;SDS011;11585;51.450;-0.240;2023-03-23T08:50:07;24.63;;;3.45;;
22837;SDS011;11585;51.450;-0.240;2023-03-23T08:52:40;28.23;;;4.30;;
22837;SDS011;11585;51.450;-0.240;2023-03-23T08:55:06;36.42;;;4.43;;
22837;SDS011;11585;51.450;-0.240;2023-03-23T08:57:34;22.00;;;3.60;;
22837;SDS011;11585;51.450;-0.240;2023-03-23T09:00:01;25.08;;;4.15;;
22837;SDS011;11585;51.450;-0.240;2023-03-23T09:05:28;32.05;;;4.30;;
22837;SDS011;11585;51.450;-0.240;2023-03-23T09:07:55;22.50;;;3.30;;
22837;SDS011;11585;51.450;-0.240;2023-03-23T09:10:24;33.00;;;4.05;;
22837;SDS011;11585;51.450;-0.240;2023-03-23T09:15:41;27.50;;;3.90;;
22837;SDS011;11585;51.450;-0.240;2023-03-23T09:18:07;29.33;;;4.55;;
22837;SDS011;11585;51.450;-0.240;2023-03-23T09:20:33;33.40;;;3.60;;
22837;SDS011;11585;51.450;-0.240;2023-03-23T09:22:59;45.22;;;4.25;;
22837;SDS011;11585;51.450;-0.240;2023-03-23T09:25:26;39.35;;;4.22;;
22837;SDS011;11585;51.450;-0.240;2023-03-23T09:27:53;35.95;;;4.50;;
22837;SDS011;11585;51.450;-0.240;2023-03-23T09:30:21;26.77;;;3.70;;
22837;SDS011;11585;51.450;-0.240;2023-03-23T09:32:55;31.40;;;3.63;;
22837;SDS011;11585;51.450;-0.240;2023-03-23T09:35:22;27.38;;;4.05;;
22837;SDS011;11585;51.450;-0.240;2023-03-23T09:37:49;37.47;;;3.67;;
22837;SDS011;11585;51.450;-0.240;2023-03-23T09:40:18;37.17;;;4.15;;
22837;SDS011;11585;51.450;-0.240;2023-03-23T09:48:43;18.83;;;3.45;;
22837;SDS011;11585;51.450;-0.240;2023-03-23T09:54:28;17.13;;;2.85;;
22837;SDS011;11585;51.450;-0.240;2023-03-23T09:56:52;30.75;;;4.07;;
22837;SDS011;11585;51.450;-0.240;2023-03-23T10:02:09;24.40;;;4.38;;
22837;SDS011;11585;51.450;-0.240;2023-03-23T10:04:48;29.70;;;3.78;;
22837;SDS011;11585;51.450;-0.240;2023-03-23T10:07:17;25.05;;;3.58;;
22837;SDS011;11585;51.450;-0.240;2023-03-23T10:09:53;19.55;;;2.95;;
22837;SDS011;11585;51.450;-0.240;2023-03-23T10:12:34;26.35;;;3.47;;
22837;SDS011;11585;51.450;-0.240;2023-03-23T10:15:14;24.50;;;4.03;;
22837;SDS011;11585;51.450;-0.240;2023-03-23T10:17:47;23.58;;;3.40;;
22837;SDS011;11585;51.450;-0.240;2023-03-23T10:22:51;20.75;;;3.63;;
22837;SDS011;11585;51.450;-0.240;2023-03-23T10:25:28;21.20;;;3.50;;
22837;SDS011;11585;51.450;-0.240;2023-03-23T10:30:40;21.25;;;3.67;;
22837;SDS011;11585;51.450;-0.240;2023-03-23T10:35:48;18.95;;;2.85;;
22837;SDS011;11585;51.450;-0.240;2023-03-23T10:38:37;15.35;;;3.35;;
22837;SDS011;11585;51.450;-0.240;2023-03-23T10:41:34;31.85;;;3.80;;
22837;SDS011;11585;51.450;-0.240;2023-03-23T10:44:07;19.77;;;3.63;;
22837;SDS011;11585;51.450;-0.240;2023-03-23T10:49:27;22.02;;;3.05;;
22837;SDS011;11585;51.450;-0.240;2023-03-23T10:52:06;22.38;;;3.35;;
22837;SDS011;11585;51.450;-0.240;2023-03-23T10:54:55;28.20;;;4.05;;
22837;SDS011;11585;51.450;-0.240;2023-03-23T10:57:27;20.92;;;3.42;;
22837;SDS011;11585;51.450;-0.240;2023-03-23T11:05:21;23.95;;;4.10;;
22837;SDS011;11585;51.450;-0.240;2023-03-23T11:07:54;25.95;;;4.40;;
22837;SDS011;11585;51.450;-0.240;2023-03-23T11:10:23;21.83;;;4.25;;
22837;SDS011;11585;51.450;-0.240;2023-03-23T11:15:46;29.38;;;4.75;;
22837;SDS011;11585;51.450;-0.240;2023-03-23T11:20:46;30.88;;;4.95;;
22837;SDS011;11585;51.450;-0.240;2023-03-23T11:23:23;29.65;;;4.35;;
22837;SDS011;11585;51.450;-0.240;2023-03-23T11:31:09;39.65;;;6.43;;
22837;SDS011;11585;51.450;-0.240;2023-03-23T11:36:58;38.00;;;4.78;;
22837;SDS011;11585;51.450;-0.240;2023-03-23T11:39:29;31.02;;;3.92;;
22837;SDS011;11585;51.450;-0.240;2023-03-23T11:42:00;23.77;;;3.08;;
22837;SDS011;11585;51.450;-0.240;2023-03-23T11:44:40;38.78;;;7.43;;
22837;SDS011;11585;51.450;-0.240;2023-03-23T11:50:20;26.45;;;4.70;;
22837;SDS011;11585;51.450;-0.240;2023-03-23T11:58:18;35.47;;;4.10;;
22837;SDS011;11585;51.450;-0.240;2023-03-23T12:08:57;36.47;;;4.95;;
22837;SDS011;11585;51.450;-0.240;2023-03-23T12:14:44;29.77;;;4.95;;
22837;SDS011;11585;51.450;-0.240;2023-03-23T12:31:19;24.20;;;3.92;;
22837;SDS011;11585;51.450;-0.240;2023-03-23T12:38:15;27.75;;;4.15;;
22837;SDS011;11585;51.450;-0.240;2023-03-23T12:43:57;26.15;;;4.10;;
22837;SDS011;11585;51.450;-0.240;2023-03-23T12:49:14;32.35;;;4.80;;
22837;SDS011;11585;51.450;-0.240;2023-03-23T12:59:43;29.40;;;4.05;;
22837;SDS011;11585;51.450;-0.240;2023-03-23T13:04:56;27.42;;;4.30;;
22837;SDS011;11585;51.450;-0.240;2023-03-23T13:07:37;25.00;;;3.40;;
22837;SDS011;11585;51.450;-0.240;2023-03-23T13:26:50;30.25;;;4.30;;
22837;SDS011;11585;51.450;-0.240;2023-03-23T13:29:20;29.35;;;5.60;;
22837;SDS011;11585;51.450;-0.240;2023-03-23T13:31:49;32.25;;;4.55;;
22837;SDS011;11585;51.450;-0.240;2023-03-23T13:37:02;33.67;;;5.20;;
22837;SDS011;11585;51.450;-0.240;2023-03-23T13:42:21;36.58;;;4.13;;
22837;SDS011;11585;51.450;-0.240;2023-03-23T13:49:58;24.75;;;4.25;;
22837;SDS011;11585;51.450;-0.240;2023-03-23T14:08:20;32.10;;;4.07;;
22837;SDS011;11585;51.450;-0.240;2023-03-23T14:11:02;35.97;;;4.32;;
22837;SDS011;11585;51.450;-0.240;2023-03-23T14:13:44;33.63;;;5.85;;
22837;SDS011;11585;51.450;-0.240;2023-03-23T14:19:03;35.63;;;5.30;;
22837;SDS011;11585;51.450;-0.240;2023-03-23T14:21:39;30.10;;;4.47;;
22837;SDS011;11585;51.450;-0.240;2023-03-23T14:27:12;22.33;;;4.13;;
22837;SDS011;11585;51.450;-0.240;2023-03-23T14:29:41;33.40;;;4.72;;
22837;SDS011;11585;51.450;-0.240;2023-03-23T14:32:07;26.55;;;4.63;;
22837;SDS011;11585;51.450;-0.240;2023-03-23T14:34:39;25.83;;;4.97;;
22837;SDS011;11585;51.450;-0.240;2023-03-23T14:37:04;40.92;;;5.57;;
22837;SDS011;11585;51.450;-0.240;2023-03-23T14:39:37;28.27;;;5.03;;
22837;SDS011;11585;51.450;-0.240;2023-03-23T14:42:11;24.08;;;4.53;;
22837;SDS011;11585;51.450;-0.240;2023-03-23T14:44:43;28.42;;;5.20;;
22837;SDS011;11585;51.450;-0.240;2023-03-23T14:47:29;32.90;;;4.57;;
22837;SDS011;11585;51.450;-0.240;2023-03-23T14:50:04;37.30;;;5.13;;
22837;SDS011;11585;51.450;-0.240;2023-03-23T14:55:21;36.65;;;4.68;;
22837;SDS011;11585;51.450;-0.240;2023-03-23T14:57:48;40.35;;;5.57;;
22837;SDS011;11585;51.450;-0.240;2023-03-23T15:00:16;34.67;;;5.22;;
22837;SDS011;11585;51.450;-0.240;2023-03-23T15:08:56;46.75;;;5.15;;
22837;SDS011;11585;51.450;-0.240;2023-03-23T15:11:26;42.58;;;5.65;;
22837;SDS011;11585;51.450;-0.240;2023-03-23T15:17:00;30.42;;;5.63;;
22837;SDS011;11585;51.450;-0.240;2023-03-23T15:19:28;35.95;;;6.15;;
22837;SDS011;11585;51.450;-0.240;2023-03-23T15:24:51;56.58;;;11.32;;
22837;SDS011;11585;51.450;-0.240;2023-03-23T15:27:32;32.20;;;5.90;;
22837;SDS011;11585;51.450;-0.240;2023-03-23T15:30:00;40.60;;;7.70;;
22837;SDS011;11585;51.450;-0.240;2023-03-23T15:36:07;46.78;;;5.93;;
22837;SDS011;11585;51.450;-0.240;2023-03-23T15:38:39;54.28;;;10.45;;
22837;SDS011;11585;51.450;-0.240;2023-03-23T15:47:15;36.00;;;5.10;;
22837;SDS011;11585;51.450;-0.240;2023-03-23T15:49:43;34.05;;;4.63;;
22837;SDS011;11585;51.450;-0.240;2023-03-23T15:52:10;25.67;;;4.55;;
22837;SDS011;11585;51.450;-0.240;2023-03-23T15:54:37;32.90;;;6.10;;
22837;SDS011;11585;51.450;-0.240;2023-03-23T15:57:03;30.35;;;4.80;;
22837;SDS011;11585;51.450;-0.240;2023-03-23T15:59:29;23.30;;;3.55;;
22837;SDS011;11585;51.450;-0.240;2023-03-23T16:01:54;33.58;;;4.50;;
22837;SDS011;11585;51.450;-0.240;2023-03-23T16:04:22;24.10;;;4.15;;
22837;SDS011;11585;51.450;-0.240;2023-03-23T16:06:49;22.58;;;3.72;;
22837;SDS011;11585;51.450;-0.240;2023-03-23T16:09:17;21.08;;;4.28;;
22837;SDS011;11585;51.450;-0.240;2023-03-23T16:11:44;21.70;;;4.07;;
22837;SDS011;11585;51.450;-0.240;2023-03-23T16:17:32;31.02;;;4.57;;
22837;SDS011;11585;51.450;-0.240;2023-03-23T16:19:57;29.00;;;4.60;;
22837;SDS011;11585;51.450;-0.240;2023-03-23T16:25:45;27.75;;;4.55;;
22837;SDS011;11585;51.450;-0.240;2023-03-23T16:28:11;29.85;;;5.05;;
22837;SDS011;11585;51.450;-0.240;2023-03-23T16:30:38;30.02;;;4.80;;
22837;SDS011;11585;51.450;-0.240;2023-03-23T16:33:05;29.67;;;5.70;;
22837;SDS011;11585;51.450;-0.240;2023-03-23T16:35:31;27.70;;;4.35;;
22837;SDS011;11585;51.450;-0.240;2023-03-23T16:37:57;20.95;;;4.65;;
22837;SDS011;11585;51.450;-0.240;2023-03-23T16:40:23;29.45;;;4.50;;
22837;SDS011;11585;51.450;-0.240;2023-03-23T16:46:11;25.25;;;4.72;;
22837;SDS011;11585;51.450;-0.240;2023-03-23T16:51:59;19.58;;;3.03;;
22837;SDS011;11585;51.450;-0.240;2023-03-23T16:57:47;12.93;;;3.63;;
22837;SDS011;11585;51.450;-0.240;2023-03-23T17:05:44;23.52;;;3.28;;
22837;SDS011;11585;51.450;-0.240;2023-03-23T17:08:12;17.03;;;3.00;;
22837;SDS011;11585;51.450;-0.240;2023-03-23T17:10:38;15.45;;;3.72;;
22837;SDS011;11585;51.450;-0.240;2023-03-23T17:16:27;9.45;;;2.53;;
22837;SDS011;11585;51.450;-0.240;2023-03-23T17:18:53;9.98;;;2.47;;
22837;SDS011;11585;51.450;-0.240;2023-03-23T17:21:18;12.52;;;2.40;;
22837;SDS011;11585;51.450;-0.240;2023-03-23T17:26:33;9.50;;;1.98;;
22837;SDS011;11585;51.450;-0.240;2023-03-23T17:28:59;7.30;;;2.10;;
22837;SDS011;11585;51.450;-0.240;2023-03-23T17:31:24;8.27;;;1.77;;
22837;SDS011;11585;51.450;-0.240;2023-03-23T17:33:50;9.27;;;2.42;;
22837;SDS011;11585;51.450;-0.240;2023-03-23T17:36:16;9.60;;;2.40;;
22837;SDS011;11585;51.450;-0.240;2023-03-23T17:38:42;14.48;;;2.60;;
22837;SDS011;11585;51.450;-0.240;2023-03-23T17:41:08;11.82;;;2.65;;
22837;SDS011;11585;51.450;-0.240;2023-03-23T17:43:37;12.70;;;2.65;;
22837;SDS011;11585;51.450;-0.240;2023-03-23T17:46:06;13.35;;;2.17;;
22837;SDS011;11585;51.450;-0.240;2023-03-23T17:51:01;17.67;;;3.45;;
22837;SDS011;11585;51.450;-0.240;2023-03-23T17:53:29;19.33;;;3.97;;
22837;SDS011;11585;51.450;-0.240;2023-03-23T17:55:56;19.67;;;3.35;;
22837;SDS011;11585;51.450;-0.240;2023-03-23T17:58:22;18.42;;;3.83;;
22837;SDS011;11585;51.450;-0.240;2023-03-23T18:00:52;25.15;;;6.03;;
22837;SDS011;11585;51.450;-0.240;2023-03-23T18:03:21;18.92;;;3.67;;
22837;SDS011;11585;51.450;-0.240;2023-03-23T18:05:48;20.45;;;4.20;;
22837;SDS011;11585;51.450;-0.240;2023-03-23T18:08:15;15.27;;;2.75;;
22837;SDS011;11585;51.450;-0.240;2023-03-23T18:10:41;23.25;;;3.72;;
22837;SDS011;11585;51.450;-0.240;2023-03-23T18:16:29;20.70;;;3.55;;
22837;SDS011;11585;51.450;-0.240;2023-03-23T18:18:54;14.32;;;3.78;;
22837;SDS011;11585;51.450;-0.240;2023-03-23T18:21:20;21.65;;;3.55;;
22837;SDS011;11585;51.450;-0.240;2023-03-23T18:26:17;26.85;;;4.18;;
22837;SDS011;11585;51.450;-0.240;2023-03-23T18:28:45;25.75;;;4.35;;
22837;SDS011;11585;51.450;-0.240;2023-03-23T18:31:13;28.40;;;6.63;;
22837;SDS011;11585;51.450;-0.240;2023-03-23T18:33:42;16.67;;;3.30;;
22837;SDS011;11585;51.450;-0.240;2023-03-23T18:36:11;21.48;;;4.38;;
22837;SDS011;11585;51.450;-0.240;2023-03-23T18:38:42;14.32;;;3.25;;
22837;SDS011;11585;51.450;-0.240;2023-03-23T18:41:09;21.65;;;4.80;;
22837;SDS011;11585;51.450;-0.240;2023-03-23T18:43:36;10.40;;;3.20;;
22837;SDS011;11585;51.450;-0.240;2023-03-23T18:46:01;8.60;;;2.60;;
22837;SDS011;11585;51.450;-0.240;2023-03-23T18:48:28;13.60;;;2.85;;
22837;SDS011;11585;51.450;-0.240;2023-03-23T18:50:54;11.20;;;2.90;;
22837;SDS011;11585;51.450;-0.240;2023-03-23T18:53:23;11.55;;;2.90;;
22837;SDS011;11585;51.450;-0.240;2023-03-23T18:55:50;19.75;;;5.07;;
22837;SDS011;11585;51.450;-0.240;2023-03-23T18:58:16;12.82;;;2.90;;
22837;SDS011;11585;51.450;-0.240;2023-03-23T19:00:43;8.60;;;2.33;;
22837;SDS011;11585;51.450;-0.240;2023-03-23T19:05:56;11.20;;;3.05;;
22837;SDS011;11585;51.450;-0.240;2023-03-23T19:08:23;10.93;;;2.83;;
22837;SDS011;11585;51.450;-0.240;2023-03-23T19:10:49;14.52;;;2.35;;
22837;SDS011;11585;51.450;-0.240;2023-03-23T19:16:04;11.60;;;3.00;;
22837;SDS011;11585;51.450;-0.240;2023-03-23T19:18:31;10.38;;;3.25;;
22837;SDS011;11585;51.450;-0.240;2023-03-23T19:20:56;10.63;;;2.70;;
22837;SDS011;11585;51.450;-0.240;2023-03-23T19:25:52;15.40;;;3.47;;
22837;SDS011;11585;51.450;-0.240;2023-03-23T19:28:18;13.57;;;3.10;;
22837;SDS011;11585;51.450;-0.240;2023-03-23T19:30:45;10.75;;;2.50;;
22837;SDS011;11585;51.450;-0.240;2023-03-23T19:33:13;12.57;;;2.13;;
22837;SDS011;11585;51.450;-0.240;2023-03-23T19:35:42;7.38;;;2.33;;
22837;SDS011;11585;51.450;-0.240;2023-03-23T19:38:11;15.27;;;3.10;;
22837;SDS011;11585;51.450;-0.240;2023-03-23T19:40:37;15.18;;;3.63;;
22837;SDS011;11585;51.450;-0.240;2023-03-23T19:43:03;13.13;;;2.85;;
22837;SDS011;11585;51.450;-0.240;2023-03-23T19:45:29;8.60;;;2.55;;
22837;SDS011;11585;51.450;-0.240;2023-03-23T19:47:56;11.45;;;2.35;;
22837;SDS011;11585;51.450;-0.240;2023-03-23T19:50:21;12.77;;;2.70;;
22837;SDS011;11585;51.450;-0.240;2023-03-23T19:52:47;10.27;;;2.15;;
22837;SDS011;11585;51.450;-0.240;2023-03-23T19:55:13;12.38;;;3.20;;
22837;SDS011;11585;51.450;-0.240;2023-03-23T19:57:39;14.55;;;2.50;;
22837;SDS011;11585;51.450;-0.240;2023-03-23T20:00:06;14.38;;;2.78;;
22837;SDS011;11585;51.450;-0.240;2023-03-23T20:02:35;13.30;;;2.33;;
22837;SDS011;11585;51.450;-0.240;2023-03-23T20:05:01;13.13;;;2.57;;
22837;SDS011;11585;51.450;-0.240;2023-03-23T20:07:26;14.13;;;2.70;;
22837;SDS011;11585;51.450;-0.240;2023-03-23T20:09:52;20.92;;;2.53;;
22837;SDS011;11585;51.450;-0.240;2023-03-23T20:15:04;11.88;;;2.55;;
22837;SDS011;11585;51.450;-0.240;2023-03-23T20:17:31;15.35;;;3.22;;
22837;SDS011;11585;51.450;-0.240;2023-03-23T20:19:57;12.15;;;2.67;;
22837;SDS011;11585;51.450;-0.240;2023-03-23T20:22:23;8.07;;;2.50;;